Time;durP1;ratioP1;P1;durP2;ratioP2;P2;SDS_P1;SDS_P2;PMS_P1;PMS_P2;Temp;Humidity;BMP_temperature;BMP_pressure;BME280_temperature;BME280_humidity;BME280_pressure;Samples;Min_cycle;Max_cycle;Signal;HPM_P1;HPM_P2
2021/10/17 00:02:25;;;;;;;66.53;38.67;;;;;;;9.40;77.69;100148.57;1685528;85;21245;-76
2021/10/17 00:05:34;;;;;;;72.58;38.78;;;;;;;9.39;77.71;100149.60;1740738;82;21299;-76
2021/10/17 00:08:40;;;;;;;67.53;38.48;;;;;;;9.41;77.74;100151.15;1684920;85;21362;-76
2021/10/17 00:11:47;;;;;;;65.40;35.63;;;;;;;9.41;77.69;100144.33;1747164;80;21256;-75
2021/10/17 00:14:55;;;;;;;64.53;37.10;;;;;;;9.40;77.69;100149.42;1718191;83;21306;-76
2021/10/17 00:18:02;;;;;;;75.37;36.45;;;;;;;9.40;77.77;100144.47;1689442;85;21183;-75
2021/10/17 00:21:08;;;;;;;63.48;34.48;;;;;;;9.41;77.81;100140.71;1687929;85;21220;-75
2021/10/17 00:24:12;;;;;;;70.17;35.20;;;;;;;9.41;77.75;100138.86;1689433;85;21873;-76
2021/10/17 00:27:18;;;;;;;68.90;34.92;;;;;;;9.43;77.74;100141.41;1687949;85;21206;-75
2021/10/17 00:30:23;;;;;;;62.50;35.48;;;;;;;9.45;77.73;100135.25;1689562;85;21369;-75
2021/10/17 00:33:28;;;;;;;67.85;35.17;;;;;;;9.46;77.73;100131.00;1687875;85;21207;-76
2021/10/17 00:36:35;;;;;;;58.02;34.00;;;;;;;9.47;77.73;100136.80;1689395;85;21310;-75
2021/10/17 00:39:43;;;;;;;62.65;33.85;;;;;;;9.47;77.70;100131.34;1686949;85;21381;-75
2021/10/17 00:42:50;;;;;;;61.75;33.75;;;;;;;9.44;77.77;100133.03;1689413;85;21715;-76
2021/10/17 00:45:55;;;;;;;69.40;35.03;;;;;;;9.43;77.82;100131.86;1688164;85;21317;-75
2021/10/17 00:49:00;;;;;;;57.15;33.55;;;;;;;9.40;77.92;100134.41;1688834;85;21338;-76
2021/10/17 00:52:07;;;;;;;57.48;32.15;;;;;;;9.37;77.97;100128.47;1687932;85;21222;-75
2021/10/17 00:55:14;;;;;;;65.92;33.35;;;;;;;9.36;78.03;100132.19;1689389;85;22513;-75
2021/10/17 00:58:24;;;;;;;60.63;33.42;;;;;;;9.35;78.10;100139.53;1687924;85;21845;-75
2021/10/17 01:01:30;;;;;;;61.23;33.05;;;;;;;9.36;78.13;100140.38;1670242;85;21858;-75
2021/10/17 01:04:37;;;;;;;69.15;34.40;;;;;;;9.36;78.09;100141.27;1686464;85;21860;-75
2021/10/17 01:07:43;;;;;;;69.90;37.63;;;;;;;9.37;77.99;100151.15;1669030;85;21191;-76
2021/10/17 01:10:48;;;;;;;64.53;35.95;;;;;;;9.39;77.88;100150.97;1686600;85;21246;-75
2021/10/17 01:13:54;;;;;;;61.33;35.00;;;;;;;9.40;77.82;100148.05;1683291;84;21630;-75
2021/10/17 01:16:58;;;;;;;71.60;40.63;;;;;;;9.42;77.70;100145.17;1681613;85;21278;-76
2021/10/17 01:20:04;;;;;;;70.15;39.85;;;;;;;9.43;77.52;100149.60;1683424;85;21892;-76
2021/10/17 01:23:09;;;;;;;70.65;36.40;;;;;;;9.44;77.35;100149.94;1682707;85;21773;-75
2021/10/17 01:26:15;;;;;;;67.27;37.88;;;;;;;9.42;77.21;100152.84;1683178;85;21830;-75
2021/10/17 01:29:20;;;;;;;70.30;36.03;;;;;;;9.42;77.12;100147.39;1660378;85;21360;-75
2021/10/17 01:32:26;;;;;;;64.72;37.23;;;;;;;9.41;77.08;100151.15;1684242;85;21734;-75
2021/10/17 01:35:31;;;;;;;63.30;36.13;;;;;;;9.39;76.97;100149.09;1682728;85;21329;-76
2021/10/17 01:38:36;;;;;;;63.38;32.45;;;;;;;9.37;76.89;100153.88;1684027;85;22431;-75
2021/10/17 01:41:42;;;;;;;68.47;32.63;;;;;;;9.35;76.84;100153.70;1682225;85;21333;-76
2021/10/17 01:44:50;;;;;;;64.55;33.98;;;;;;;9.33;76.94;100146.20;1684234;85;21305;-75
2021/10/17 01:47:57;;;;;;;62.33;31.45;;;;;;;9.32;76.97;100156.27;1682926;85;21712;-76
2021/10/17 01:51:03;;;;;;;68.75;34.83;;;;;;;9.32;76.96;100155.42;1683305;85;21345;-75
2021/10/17 01:54:08;;;;;;;68.25;37.15;;;;;;;9.32;76.94;100154.91;1682600;85;21373;-76
2021/10/17 01:57:13;;;;;;;69.30;35.03;;;;;;;9.32;76.93;100151.33;1683543;85;21303;-76
2021/10/17 02:00:20;;;;;;;71.25;37.90;;;;;;;9.32;76.93;100164.47;1682181;85;21352;-76
2021/10/17 02:03:26;;;;;;;67.08;37.75;;;;;;;9.31;76.94;100161.38;1684264;85;21321;-75
2021/10/17 02:06:32;;;;;;;74.17;38.53;;;;;;;9.30;76.86;100152.84;1681423;85;21381;-75
2021/10/17 02:09:37;;;;;;;80.32;37.53;;;;;;;9.27;76.81;100149.60;1682927;85;21936;-76
2021/10/17 02:12:43;;;;;;;82.17;40.38;;;;;;;9.24;76.81;100139.05;1681773;84;21357;-76
2021/10/17 02:15:48;;;;;;;75.10;41.85;;;;;;;9.22;76.82;100140.56;1663652;86;21855;-75
2021/10/17 02:18:54;;;;;;;71.77;36.17;;;;;;;9.20;76.78;100150.81;1663758;86;21223;-76
2021/10/17 02:22:00;;;;;;;70.78;35.80;;;;;;;9.17;76.77;100151.14;1657511;86;21319;-76
2021/10/17 02:25:05;;;;;;;82.37;40.12;;;;;;;9.13;76.81;100151.17;1665442;86;21377;-76
2021/10/17 02:28:11;;;;;;;69.32;39.00;;;;;;;9.07;77.00;100151.31;1656555;86;21244;-75
2021/10/17 02:31:17;;;;;;;72.12;35.75;;;;;;;9.05;77.25;100148.44;1664208;86;21953;-76
2021/10/17 02:34:23;;;;;;;73.42;37.25;;;;;;;9.05;77.33;100145.70;1657457;86;21919;-76
2021/10/17 02:37:30;;;;;;;61.98;33.50;;;;;;;9.03;77.39;100145.01;1665185;86;21910;-76
2021/10/17 02:40:36;;;;;;;65.42;32.13;;;;;;;9.03;77.42;100138.19;1657325;86;21332;-76
2021/10/17 02:43:43;;;;;;;58.92;32.58;;;;;;;9.01;77.38;100138.37;1663984;86;21747;-76
2021/10/17 02:46:48;;;;;;;65.97;32.00;;;;;;;9.00;77.37;100133.09;1657646;86;21359;-75
2021/10/17 02:49:53;;;;;;;61.13;32.53;;;;;;;9.00;77.33;100130.36;1665198;86;21937;-76
2021/10/17 02:52:58;;;;;;;56.13;29.48;;;;;;;9.03;77.21;100135.45;1657614;86;21336;-75
2021/10/17 02:56:04;;;;;;;55.20;29.27;;;;;;;9.04;77.06;100127.12;1665288;86;21325;-75
2021/10/17 02:59:10;;;;;;;55.52;29.18;;;;;;;9.08;76.89;100133.06;1656165;86;21954;-75
2021/10/17 03:02:15;;;;;;;57.17;28.35;;;;;;;9.09;76.75;100126.61;1664088;86;21334;-75
2021/10/17 03:05:21;;;;;;;43.28;24.43;;;;;;;9.11;76.62;100128.13;1657568;86;21812;-75
2021/10/17 03:08:28;;;;;;;46.20;26.97;;;;;;;9.14;76.37;100129.68;1664025;85;21211;-75
2021/10/17 03:11:34;;;;;;;50.03;25.60;;;;;;;9.14;76.15;100131.04;1640406;86;21244;-75
2021/10/17 03:14:40;;;;;;;42.20;24.30;;;;;;;9.14;76.03;100128.31;1681104;83;21964;-75
2021/10/17 03:17:45;;;;;;;50.90;26.60;;;;;;;9.16;75.92;100128.98;1684103;85;21813;-76
2021/10/17 03:20:52;;;;;;;51.35;27.37;;;;;;;9.17;75.79;100130.20;1682570;85;21337;-76
2021/10/17 03:23:59;;;;;;;54.35;26.25;;;;;;;9.18;75.62;100135.14;1682906;85;21755;-76
2021/10/17 03:27:06;;;;;;;49.25;24.72;;;;;;;9.16;75.39;100135.28;1681528;85;21738;-76
2021/10/17 03:30:15;;;;;;;44.15;24.92;;;;;;;9.13;75.30;100134.28;1684321;85;21361;-75
2021/10/17 03:33:21;;;;;;;49.33;21.97;;;;;;;9.10;75.23;100131.03;1682750;85;21321;-76
2021/10/17 03:36:29;;;;;;;50.85;26.40;;;;;;;9.07;75.25;100138.19;1684464;85;21306;-74
2021/10/17 03:39:34;;;;;;;53.70;25.17;;;;;;;9.01;75.32;100134.79;1682763;85;21385;-74
2021/10/17 03:42:41;;;;;;;37.65;23.25;;;;;;;8.98;75.40;100132.39;1683196;85;21200;-74
2021/10/17 03:45:48;;;;;;;46.15;25.15;;;;;;;8.93;75.49;100135.63;1681497;85;21325;-74
2021/10/17 03:48:54;;;;;;;50.67;23.98;;;;;;;8.89;75.59;100136.98;1684216;85;21188;-75
2021/10/17 03:52:00;;;;;;;44.50;23.20;;;;;;;8.86;75.60;100145.02;1682188;85;21368;-75
2021/10/17 03:55:06;;;;;;;50.50;24.92;;;;;;;8.83;75.57;100145.86;1684285;85;21303;-75
2021/10/17 03:58:14;;;;;;;39.75;23.57;;;;;;;8.79;75.52;100148.06;1697088;84;21872;-75
2021/10/17 04:01:20;;;;;;;40.92;23.57;;;;;;;8.75;75.52;100148.08;1704340;84;21956;-75
2021/10/17 04:04:26;;;;;;;42.27;22.50;;;;;;;8.70;75.60;100144.50;1704909;84;21372;-76
2021/10/17 04:07:32;;;;;;;41.60;23.02;;;;;;;8.68;75.75;100144.31;1704865;84;21326;-75
2021/10/17 04:10:37;;;;;;;50.50;24.72;;;;;;;8.65;75.95;100140.55;1704942;84;21357;-75
2021/10/17 04:13:43;;;;;;;41.10;22.73;;;;;;;8.64;76.01;100141.57;1704723;84;21607;-76
2021/10/17 04:16:51;;;;;;;46.77;23.57;;;;;;;8.65;75.95;100142.76;1703999;84;21231;-75
2021/10/17 04:19:57;;;;;;;40.88;23.80;;;;;;;8.66;75.91;100152.66;1704994;84;21171;-75
2021/10/17 04:23:03;;;;;;;41.37;23.50;;;;;;;8.68;75.93;100156.06;1704064;84;21202;-74
2021/10/17 04:26:10;;;;;;;48.75;26.35;;;;;;;8.72;75.96;100158.47;1703687;84;21328;-75
2021/10/17 04:29:17;;;;;;;54.58;25.68;;;;;;;8.70;75.85;100156.77;1703853;84;21230;-74
2021/10/17 04:32:23;;;;;;;43.17;24.57;;;;;;;8.72;75.78;100157.95;1704525;84;21392;-75
2021/10/17 04:35:29;;;;;;;38.78;24.02;;;;;;;8.73;75.69;100159.66;1704969;84;21301;-75
2021/10/17 04:38:34;;;;;;;48.45;24.98;;;;;;;8.75;75.64;100159.47;1704815;84;21861;-76
2021/10/17 04:41:41;;;;;;;45.33;26.85;;;;;;;8.76;75.52;100156.60;1704838;84;21905;-75
2021/10/17 04:44:46;;;;;;;45.25;26.07;;;;;;;8.78;75.39;100168.18;1704190;84;21350;-76
2021/10/17 04:47:53;;;;;;;52.78;26.90;;;;;;;8.80;75.34;100166.16;1704865;84;21361;-75
2021/10/17 04:51:00;;;;;;;41.35;23.80;;;;;;;8.83;75.29;100165.80;1704984;84;21368;-75
2021/10/17 04:54:07;;;;;;;48.63;26.62;;;;;;;8.86;75.21;100176.37;1703640;84;21349;-76
2021/10/17 04:57:13;;;;;;;46.20;26.25;;;;;;;8.87;75.12;100172.63;1704984;84;21214;-75
2021/10/17 05:00:19;;;;;;;43.30;25.10;;;;;;;8.93;74.98;100180.13;1704134;84;21868;-75
2021/10/17 05:03:26;;;;;;;52.25;25.88;;;;;;;9.00;74.74;100180.84;1704140;84;21210;-75
2021/10/17 05:06:32;;;;;;;47.65;24.65;;;;;;;9.05;74.49;100181.17;1703672;84;21206;-75
2021/10/17 05:09:38;;;;;;;44.53;27.25;;;;;;;9.11;74.33;100181.85;1703493;84;21243;-76
2021/10/17 05:12:43;;;;;;;52.48;26.77;;;;;;;9.16;74.25;100178.95;1704662;84;21896;-76
2021/10/17 05:15:49;;;;;;;41.00;25.75;;;;;;;9.21;74.08;100182.02;1703302;84;21778;-76
2021/10/17 05:18:55;;;;;;;47.13;25.57;;;;;;;9.26;73.88;100187.48;1704928;84;21849;-73
2021/10/17 05:22:02;;;;;;;48.38;27.02;;;;;;;9.31;73.83;100191.91;1703593;84;21238;-76
2021/10/17 05:25:07;;;;;;;46.30;26.35;;;;;;;9.35;73.76;100192.76;1703522;84;21329;-76
2021/10/17 05:28:12;;;;;;;45.73;27.48;;;;;;;9.41;73.65;100198.92;1704968;84;21329;-76
2021/10/17 05:31:19;;;;;;;46.02;27.13;;;;;;;9.44;73.54;100198.56;1703896;84;21423;-76
2021/10/17 05:34:25;;;;;;;45.30;25.35;;;;;;;9.50;73.45;100200.26;1703911;84;21762;-76
2021/10/17 05:37:31;;;;;;;56.30;27.98;;;;;;;9.53;73.30;100197.20;1704917;84;22583;-76
2021/10/17 05:40:36;;;;;;;52.48;29.20;;;;;;;9.57;73.15;100199.92;1704914;84;21851;-76
2021/10/17 05:43:41;;;;;;;48.30;28.17;;;;;;;9.63;73.00;100205.53;1704211;84;21373;-76
2021/10/17 05:46:47;;;;;;;67.58;32.78;;;;;;;9.70;72.80;100212.55;1703640;84;21340;-76
2021/10/17 05:49:53;;;;;;;52.78;27.87;;;;;;;9.71;72.34;100210.14;1705018;84;21202;-76
2021/10/17 05:52:58;;;;;;;50.03;27.30;;;;;;;9.76;72.21;100214.58;1704854;84;21400;-76
2021/10/17 05:56:03;;;;;;;58.52;28.57;;;;;;;9.81;72.20;100208.59;1704797;84;21183;-76
2021/10/17 05:59:09;;;;;;;54.63;27.87;;;;;;;9.85;71.87;100210.80;1704728;84;21191;-76
2021/10/17 06:02:17;;;;;;;55.78;27.15;;;;;;;9.90;71.82;100202.93;1703567;84;21793;-76
2021/10/17 06:05:23;;;;;;;49.70;27.98;;;;;;;9.94;71.57;100201.56;1704947;84;21317;-76
2021/10/17 06:08:30;;;;;;;61.35;28.45;;;;;;;9.99;71.43;100207.87;1703531;84;21313;-76
2021/10/17 06:11:37;;;;;;;54.50;28.40;;;;;;;10.03;71.31;100207.02;1703484;84;21353;-76
2021/10/17 06:14:42;;;;;;;63.10;29.67;;;;;;;10.05;71.23;100207.67;1703485;84;21352;-76
2021/10/17 06:17:49;;;;;;;56.18;30.00;;;;;;;10.07;70.92;100205.61;1704854;84;21262;-76
2021/10/17 06:20:55;;;;;;;50.08;28.62;;;;;;;10.09;70.92;100208.52;1703532;84;21262;-76
2021/10/17 06:24:01;;;;;;;60.55;30.17;;;;;;;10.11;70.81;100216.01;1704415;84;21313;-76
2021/10/17 06:27:07;;;;;;;60.60;28.00;;;;;;;10.15;70.64;100220.62;1704945;84;21313;-76
2021/10/17 06:30:12;;;;;;;55.92;25.82;;;;;;;10.17;70.45;100218.06;1704852;84;21881;-76
2021/10/17 06:33:18;;;;;;;55.33;26.27;;;;;;;10.17;70.31;100215.33;1704951;84;21340;-76
2021/10/17 06:36:23;;;;;;;48.70;26.90;;;;;;;10.22;70.37;100216.17;1704980;84;21310;-76
2021/10/17 06:39:29;;;;;;;61.92;25.92;;;;;;;10.28;70.15;100216.85;1705139;84;21929;-76
2021/10/17 06:42:37;;;;;;;50.52;25.75;;;;;;;10.34;69.83;100212.55;1705145;84;21317;-76
2021/10/17 06:45:49;;;;;;;55.55;27.05;;;;;;;10.39;69.53;100208.77;1704703;84;21191;-76
2021/10/17 06:48:57;;;;;;;46.95;27.25;;;;;;;10.44;69.11;100214.06;1704865;84;21285;-76
2021/10/17 06:52:04;;;;;;;60.23;26.27;;;;;;;10.51;68.72;100207.88;1704879;84;21211;-77
2021/10/17 06:55:09;;;;;;;48.45;24.72;;;;;;;10.57;67.91;100211.25;1703747;84;21348;-76
2021/10/17 06:58:15;;;;;;;58.48;26.50;;;;;;;10.63;67.66;100208.67;1704998;84;21249;-76
2021/10/17 07:01:21;;;;;;;49.98;27.02;;;;;;;10.69;67.40;100213.94;1704236;84;21856;-75
2021/10/17 07:04:27;;;;;;;54.05;26.02;;;;;;;10.75;67.11;100219.53;1703695;84;21758;-76
2021/10/17 07:07:33;;;;;;;53.25;26.33;;;;;;;10.83;67.16;100224.63;1704806;84;21313;-76
2021/10/17 07:10:39;;;;;;;52.43;25.12;;;;;;;10.89;66.47;100216.55;1704957;84;21361;-76
2021/10/17 07:13:47;;;;;;;54.53;26.90;;;;;;;10.93;66.14;100219.26;1701205;84;21325;-76
2021/10/17 07:16:54;;;;;;;51.92;23.98;;;;;;;11.00;65.90;100224.33;1703795;84;21757;-76
2021/10/17 07:19:59;;;;;;;47.80;22.50;;;;;;;11.07;65.34;100223.63;1707695;83;21265;-75
2021/10/17 07:23:05;;;;;;;48.50;25.12;;;;;;;11.11;65.31;100220.34;1710680;84;21186;-76
2021/10/17 07:26:11;;;;;;;48.48;22.15;;;;;;;11.19;65.14;100224.36;1709180;84;21313;-76
2021/10/17 07:29:16;;;;;;;46.02;21.95;;;;;;;11.30;64.54;100217.63;1709223;84;21317;-76
2021/10/17 07:32:22;;;;;;;47.08;20.90;;;;;;;11.40;64.36;100213.27;1709573;84;21238;-76
2021/10/17 07:35:29;;;;;;;42.10;21.62;;;;;;;11.50;63.96;100223.45;1709673;84;21904;-76
2021/10/17 07:38:35;;;;;;;47.53;21.05;;;;;;;11.59;63.62;100219.61;1710510;84;21325;-76
2021/10/17 07:41:45;;;;;;;42.40;19.90;;;;;;;11.71;63.01;100222.73;1710482;84;21198;-76
2021/10/17 07:44:47;;;;;;;41.33;21.00;;;;;;;11.81;62.54;100221.09;1710381;84;21353;-76
2021/10/17 07:47:54;;;;;;;32.48;17.60;;;;;;;11.91;62.04;100223.95;1709932;84;21713;-76
2021/10/17 07:50:59;;;;;;;36.42;17.17;;;;;;;12.00;61.60;100224.20;1710283;84;21309;-76
2021/10/17 07:54:04;;;;;;;33.85;16.35;;;;;;;12.11;60.63;100225.62;1710502;84;21485;-76
2021/10/17 07:57:11;;;;;;;37.17;17.67;;;;;;;12.21;60.38;100221.23;1710472;84;21313;-76
2021/10/17 08:00:18;;;;;;;33.15;16.70;;;;;;;12.32;59.64;100228.97;1710312;84;21286;-76
2021/10/17 08:03:39;;;;;;;28.60;15.65;;;;;;;12.41;59.42;100218.23;1658903;86;21561;-76
2021/10/17 08:06:46;;;;;;;26.48;14.15;;;;;;;12.50;58.79;100218.45;1708092;84;21222;-76
2021/10/17 08:09:55;;;;;;;23.20;15.10;;;;;;;12.61;58.45;100223.13;1710487;84;21219;-76
2021/10/17 08:13:02;;;;;;;30.82;15.78;;;;;;;12.72;58.87;100219.91;1710472;84;21199;-76
2021/10/17 08:16:11;;;;;;;27.43;15.53;;;;;;;12.88;57.29;100221.03;1709237;84;21239;-76
2021/10/17 08:19:18;;;;;;;26.87;15.68;;;;;;;13.01;57.11;100226.67;1709423;84;21913;-76
2021/10/17 08:22:24;;;;;;;33.80;16.00;;;;;;;13.17;56.38;100223.35;1697971;84;21250;-75
2021/10/17 08:25:32;;;;;;;23.70;15.08;;;;;;;13.30;55.61;100224.38;1692612;85;21190;-76
2021/10/17 08:28:37;;;;;;;31.80;15.88;;;;;;;13.45;55.61;100220.70;1692876;85;21754;-75
2021/10/17 08:31:46;;;;;;;27.30;14.05;;;;;;;13.64;55.17;100220.55;1692948;85;21211;-75
2021/10/17 08:34:54;;;;;;;29.80;15.53;;;;;;;13.84;54.52;100224.86;1692888;85;21912;-76
2021/10/17 08:37:53;;;;;;;27.40;15.48;;;;;;;14.03;53.15;100211.25;1691428;84;21215;-76
2021/10/17 08:41:02;;;;;;;28.95;14.05;;;;;;;14.19;52.66;100213.35;1692825;85;21868;-75
2021/10/17 08:44:12;;;;;;;26.75;14.98;;;;;;;14.38;52.65;100208.48;1692805;85;21333;-75
2021/10/17 08:47:26;;;;;;;23.60;12.73;;;;;;;14.55;51.65;100211.80;1691623;85;21262;-75
2021/10/17 08:50:31;;;;;;;24.30;13.30;;;;;;;14.68;51.76;100205.47;1693048;85;21210;-75
2021/10/17 08:53:36;;;;;;;28.85;14.63;;;;;;;14.83;50.77;100215.30;1692620;85;21305;-76
2021/10/17 08:56:44;;;;;;;21.45;11.75;;;;;;;14.96;50.30;100209.49;1691544;85;21352;-75
2021/10/17 09:00:00;;;;;;;21.07;12.45;;;;;;;14.98;49.54;100202.73;1691574;85;21377;-75
2021/10/17 09:03:07;;;;;;;24.80;12.78;;;;;;;15.00;49.43;100212.16;1691529;85;21864;-76
2021/10/17 09:06:27;;;;;;;19.82;11.90;;;;;;;15.03;49.37;100218.11;1692481;85;21339;-75
2021/10/17 09:09:32;;;;;;;;;;;;;;;15.03;49.00;100213.97;1695464;85;21389;-75
2021/10/17 09:12:37;;;;;;;18.17;11.40;;;;;;;15.07;49.06;100211.66;1692790;85;20279;-76
2021/10/17 09:15:42;;;;;;;18.10;8.65;;;;;;;15.07;48.54;100207.00;1692869;85;21734;-75
2021/10/17 09:18:48;;;;;;;18.15;10.10;;;;;;;15.08;47.59;100210.06;1691793;85;21861;-76
2021/10/17 09:22:14;;;;;;;15.23;9.75;;;;;;;15.05;47.33;100196.70;1688979;83;21856;-76
2021/10/17 09:25:19;;;;;;;16.73;8.53;;;;;;;15.03;47.43;100201.58;1740701;82;21315;-76
2021/10/17 09:28:38;;;;;;;18.60;9.83;;;;;;;15.05;47.41;100199.45;1739403;82;21827;-75
2021/10/17 09:31:45;;;;;;;25.53;9.93;;;;;;;15.11;47.41;100188.69;1741161;82;21303;-75
2021/10/17 09:35:03;;;;;;;18.90;9.98;;;;;;;15.19;47.58;100193.45;1731753;82;21826;-75
2021/10/17 09:38:12;;;;;;;19.87;9.20;;;;;;;15.31;46.67;100185.42;1738366;82;21323;-75
2021/10/17 09:41:32;;;;;;;16.57;9.50;;;;;;;15.39;46.20;100183.85;1739381;82;21368;-75
2021/10/17 09:44:48;;;;;;;21.40;9.33;;;;;;;15.44;46.52;100182.69;1739395;81;21177;-75
2021/10/17 09:47:54;;;;;;;21.33;10.68;;;;;;;15.54;46.28;100176.75;1739551;82;21304;-75
2021/10/17 09:51:13;;;;;;;31.15;10.58;;;;;;;15.61;45.68;100180.34;1684189;85;22635;-75
2021/10/17 09:54:18;;;;;;;24.10;10.00;;;;;;;15.65;45.40;100180.27;1740773;82;21343;-75
2021/10/17 09:57:23;;;;;;;13.03;8.80;;;;;;;15.63;45.11;100174.63;1731989;82;21874;-75
2021/10/17 10:00:29;;;;;;;20.70;10.25;;;;;;;15.55;45.30;100165.50;1740409;82;21252;-75
2021/10/17 10:03:35;;;;;;;17.80;9.65;;;;;;;15.53;45.26;100173.69;1685447;85;21199;-75
2021/10/17 10:06:39;;;;;;;20.40;9.38;;;;;;;15.49;45.41;100174.62;1740675;82;21342;-76
2021/10/17 10:09:46;;;;;;;17.60;9.70;;;;;;;15.48;45.79;100171.56;1740820;82;21169;-75
2021/10/17 10:12:52;;;;;;;15.98;9.63;;;;;;;15.52;45.68;100173.34;1740767;82;21819;-75
2021/10/17 10:15:59;;;;;;;15.83;9.70;;;;;;;15.51;45.74;100171.11;1700625;82;21712;-75
2021/10/17 10:19:12;;;;;;;20.40;10.20;;;;;;;15.52;45.85;100166.45;1740602;82;21181;-75
2021/10/17 10:22:19;;;;;;;21.42;9.98;;;;;;;15.56;46.03;100165.81;1694020;83;21773;-75
2021/10/17 10:25:25;;;;;;;16.95;9.00;;;;;;;15.68;46.05;100161.09;1684250;85;21193;-75
2021/10/17 10:28:31;;;;;;;17.37;8.90;;;;;;;15.76;45.71;100158.09;1696070;84;21876;-75
2021/10/17 10:31:53;;;;;;;14.25;9.28;;;;;;;15.82;45.59;100149.83;1703502;84;21333;-75
2021/10/17 10:35:06;;;;;;;21.23;10.30;;;;;;;15.91;45.16;100156.50;1704581;84;21921;-75
2021/10/17 10:38:10;;;;;;;15.10;8.18;;;;;;;15.96;44.96;100149.81;1704305;84;21397;-75
2021/10/17 10:41:30;;;;;;;14.60;9.55;;;;;;;15.98;44.95;100146.29;1704902;84;21318;-75
2021/10/17 10:44:42;;;;;;;12.90;7.85;;;;;;;15.98;44.57;100152.65;1704683;84;21852;-75
2021/10/17 10:47:47;;;;;;;17.95;7.55;;;;;;;16.01;44.42;100155.52;1704479;84;21325;-75
2021/10/17 10:50:59;;;;;;;39.98;19.67;;;;;;;15.98;44.34;100148.51;1704251;84;21231;-76
2021/10/17 10:54:06;;;;;;;36.50;19.05;;;;;;;15.95;44.50;100144.83;1704823;84;21344;-76
2021/10/17 10:57:13;;;;;;;29.00;17.85;;;;;;;15.90;44.66;100143.75;1703591;83;21915;-76
2021/10/17 11:00:21;;;;;;;21.80;11.78;;;;;;;15.87;44.84;100143.66;1684240;84;21246;-76
2021/10/17 11:03:28;;;;;;;24.18;12.98;;;;;;;15.87;44.58;100149.18;1705005;84;21853;-76
2021/10/17 11:06:36;;;;;;;18.52;12.00;;;;;;;15.84;44.67;100149.59;1704032;84;21333;-74
2021/10/17 11:09:41;;;;;;;34.90;15.93;;;;;;;15.78;44.96;100137.52;1704995;84;21310;-74
2021/10/17 11:12:57;;;;;;;46.98;23.35;;;;;;;15.80;45.31;100137.30;1705007;84;21908;-74
2021/10/17 11:16:04;;;;;;;21.93;12.88;;;;;;;15.84;44.97;100138.56;1705055;84;21381;-74
2021/10/17 11:19:10;;;;;;;42.03;22.75;;;;;;;15.83;45.01;100143.77;1703662;84;21282;-74
2021/10/17 11:22:15;;;;;;;32.40;17.90;;;;;;;15.78;45.07;100140.28;1703669;84;21948;-75
2021/10/17 11:25:26;;;;;;;22.07;11.70;;;;;;;15.75;44.31;100139.31;1712346;84;21305;-75
2021/10/17 11:28:30;;;;;;;;;;;;;;;15.70;44.38;100136.36;1714380;84;21375;-75
2021/10/17 11:31:35;;;;;;;48.48;22.40;;;;;;;15.65;44.57;100136.16;1712407;84;20282;-75
2021/10/17 11:34:40;;;;;;;19.82;10.60;;;;;;;15.60;44.21;100140.90;1710612;84;21329;-76
2021/10/17 11:37:45;;;;;;;16.30;9.50;;;;;;;15.56;43.69;100141.00;1710611;84;21344;-75
2021/10/17 11:40:52;;;;;;;18.48;10.10;;;;;;;15.54;43.59;100139.00;1712244;84;21848;-75
2021/10/17 11:44:00;;;;;;;27.32;9.63;;;;;;;15.50;43.83;100143.23;1712302;84;21203;-75
2021/10/17 11:47:08;;;;;;;13.28;7.70;;;;;;;15.43;43.65;100139.66;1712408;84;21313;-75
2021/10/17 11:50:13;;;;;;;15.35;6.83;;;;;;;15.40;43.39;100136.47;1711699;84;21369;-75
2021/10/17 11:53:24;;;;;;;18.05;7.80;;;;;;;15.40;41.80;100147.48;1711805;84;21329;-75
2021/10/17 11:56:31;;;;;;;16.73;8.60;;;;;;;15.37;42.17;100140.48;1711785;84;21881;-75
2021/10/17 11:59:36;;;;;;;38.95;18.20;;;;;;;15.36;42.88;100129.14;1711163;84;21274;-75
2021/10/17 12:02:44;;;;;;;18.57;8.93;;;;;;;15.36;43.62;100139.32;1712379;84;21968;-75
2021/10/17 12:05:50;;;;;;;29.37;14.43;;;;;;;15.32;43.94;100138.89;1712261;84;21206;-75
2021/10/17 12:09:05;;;;;;;21.90;12.90;;;;;;;15.26;44.03;100141.13;1710644;84;21262;-76
2021/10/17 12:12:11;;;;;;;19.90;10.20;;;;;;;15.18;44.09;100150.43;1710770;84;21210;-75
2021/10/17 12:15:21;;;;;;;18.70;10.20;;;;;;;15.10;43.90;100147.86;1711012;84;21316;-75
2021/10/17 12:18:26;;;;;;;21.50;8.55;;;;;;;15.05;43.40;100138.01;1711067;84;21340;-75
2021/10/17 12:21:52;;;;;;;18.15;8.13;;;;;;;14.99;43.02;100145.20;1710907;84;21273;-75
2021/10/17 12:24:59;;;;;;;14.98;8.35;;;;;;;14.92;42.90;100140.23;1710594;84;21397;-75
2021/10/17 12:28:04;;;;;;;15.45;8.10;;;;;;;14.86;42.89;100140.20;1690191;84;21848;-75
2021/10/17 12:31:10;;;;;;;15.25;8.90;;;;;;;14.83;42.91;100140.11;1710477;84;21312;-75
2021/10/17 12:34:15;;;;;;;12.93;8.43;;;;;;;14.79;43.20;100132.78;1710681;84;21203;-75
2021/10/17 12:37:22;;;;;;;12.95;8.40;;;;;;;14.76;43.03;100144.20;1710177;84;21360;-75
2021/10/17 12:40:27;;;;;;;21.15;9.25;;;;;;;14.73;43.64;100137.75;1709291;84;21392;-75
2021/10/17 12:43:35;;;;;;;17.12;8.90;;;;;;;14.67;43.89;100144.59;1710451;84;21309;-75
2021/10/17 12:46:40;;;;;;;15.90;8.35;;;;;;;14.61;43.87;100144.91;1710410;84;21761;-75
2021/10/17 12:49:47;;;;;;;14.23;8.00;;;;;;;14.57;43.96;100146.36;1709113;84;21896;-75
2021/10/17 12:53:12;;;;;;;18.55;9.10;;;;;;;14.52;44.11;100137.88;1709638;83;21341;-75
2021/10/17 12:56:18;;;;;;;15.18;8.75;;;;;;;14.48;43.81;100139.34;1710406;84;21830;-75
2021/10/17 12:59:29;;;;;;;13.65;7.90;;;;;;;14.42;43.94;100139.61;1709126;83;21395;-75
2021/10/17 13:02:45;;;;;;;23.75;9.78;;;;;;;14.40;43.76;100144.48;1710439;84;21336;-75
2021/10/17 13:05:55;;;;;;;19.12;9.40;;;;;;;14.33;43.94;100138.94;1709053;84;21230;-75
2021/10/17 13:09:01;;;;;;;21.35;10.43;;;;;;;14.26;44.00;100144.11;1710061;84;21333;-76
2021/10/17 13:12:06;;;;;;;20.65;10.30;;;;;;;14.20;44.30;100143.53;1709122;84;21329;-76
2021/10/17 13:15:15;;;;;;;19.73;9.83;;;;;;;14.13;44.51;100140.75;1710462;84;21385;-76
2021/10/17 13:18:20;;;;;;;16.45;9.63;;;;;;;14.08;44.83;100142.42;1709216;84;21317;-76
2021/10/17 13:21:26;;;;;;;17.37;10.00;;;;;;;14.03;45.09;100148.00;1709149;84;21317;-76
2021/10/17 13:24:31;;;;;;;22.25;9.45;;;;;;;14.00;45.53;100148.39;1709154;84;21349;-75
2021/10/17 13:27:37;;;;;;;17.75;10.05;;;;;;;13.96;45.99;100153.13;1708666;84;21845;-75
2021/10/17 13:30:42;;;;;;;14.58;9.50;;;;;;;13.91;46.14;100144.11;1707343;84;21908;-75
2021/10/17 13:33:48;;;;;;;17.67;9.60;;;;;;;13.87;45.91;100154.34;1707448;84;21344;-75
2021/10/17 13:36:53;;;;;;;17.73;9.28;;;;;;;13.81;45.79;100156.00;1707344;83;21680;-75
2021/10/17 13:39:57;;;;;;;19.02;9.85;;;;;;;13.76;46.00;100155.75;1708256;84;21964;-76
2021/10/17 13:43:05;;;;;;;20.97;10.88;;;;;;;13.71;46.23;100163.75;1708680;84;21305;-75
2021/10/17 13:46:11;;;;;;;18.37;10.60;;;;;;;13.66;46.53;100153.36;1708665;84;21317;-75
2021/10/17 13:49:19;;;;;;;19.48;10.95;;;;;;;13.61;47.00;100159.14;1708634;84;21215;-75
2021/10/17 13:52:24;;;;;;;19.45;10.68;;;;;;;13.57;47.46;100160.58;1708766;84;21473;-75
2021/10/17 13:55:29;;;;;;;16.17;10.13;;;;;;;13.51;47.66;100157.59;1707240;84;21211;-75
2021/10/17 13:58:35;;;;;;;19.67;11.12;;;;;;;13.46;47.70;100161.45;1707283;84;21325;-75
2021/10/17 14:01:40;;;;;;;30.15;12.60;;;;;;;13.39;47.91;100154.20;1707531;84;21543;-75
2021/10/17 14:04:46;;;;;;;23.70;11.65;;;;;;;13.32;48.23;100150.56;1707473;84;21258;-75
2021/10/17 14:07:51;;;;;;;20.40;12.33;;;;;;;13.27;48.52;100156.64;1707375;84;21842;-75
2021/10/17 14:10:57;;;;;;;26.90;12.90;;;;;;;13.21;48.77;100157.38;1707999;84;21218;-75
2021/10/17 14:14:03;;;;;;;27.45;13.68;;;;;;;13.16;49.16;100153.00;1708777;84;21372;-76
2021/10/17 14:17:09;;;;;;;24.70;14.43;;;;;;;13.12;49.47;100159.92;1708695;84;21309;-76